sensor_id;sensor_type;location;lat;lon;timestamp;pressure;altitude;pressure_sealevel;temperature;humidity
74578;BME280;63173;49.086;33.418;2023-05-10T00:02:22;101197.09;;;9.76;52.05
74578;BME280;63173;49.086;33.418;2023-05-10T00:04:48;101194.94;;;9.78;51.75
74578;BME280;63173;49.086;33.418;2023-05-10T00:07:13;101196.56;;;9.79;52.25
74578;BME280;63173;49.086;33.418;2023-05-10T00:09:38;101200.31;;;9.73;52.95
74578;BME280;63173;49.086;33.418;2023-05-10T00:12:05;101188.69;;;9.78;53.01
74578;BME280;63173;49.086;33.418;2023-05-10T00:14:30;101192.97;;;9.69;53.24
74578;BME280;63173;49.086;33.418;2023-05-10T00:16:56;101197.09;;;9.76;52.85
74578;BME280;63173;49.086;33.418;2023-05-10T00:19:21;101186.41;;;10.01;52.25
74578;BME280;63173;49.086;33.418;2023-05-10T00:21:47;101188.78;;;9.88;54.13
74578;BME280;63173;49.086;33.418;2023-05-10T00:24:12;101185.63;;;10.06;51.77
74578;BME280;63173;49.086;33.418;2023-05-10T00:26:38;101183.53;;;10.13;51.81
74578;BME280;63173;49.086;33.418;2023-05-10T00:29:03;101187.16;;;10.23;53.73
74578;BME280;63173;49.086;33.418;2023-05-10T00:31:28;101186.59;;;10.21;53.35
74578;BME280;63173;49.086;33.418;2023-05-10T00:33:54;101182.16;;;9.74;53.16
74578;BME280;63173;49.086;33.418;2023-05-10T00:36:20;101186.31;;;9.86;54.80
74578;BME280;63173;49.086;33.418;2023-05-10T00:38:46;101190.28;;;9.74;53.46
74578;BME280;63173;49.086;33.418;2023-05-10T00:41:11;101187.78;;;9.67;53.74
74578;BME280;63173;49.086;33.418;2023-05-10T00:43:36;101190.31;;;9.42;55.61
74578;BME280;63173;49.086;33.418;2023-05-10T00:46:02;101200.19;;;9.26;55.19
74578;BME280;63173;49.086;33.418;2023-05-10T00:48:28;101196.19;;;9.34;56.06
74578;BME280;63173;49.086;33.418;2023-05-10T00:50:54;101203.19;;;9.30;56.76
74578;BME280;63173;49.086;33.418;2023-05-10T00:53:20;101203.28;;;9.13;55.96
74578;BME280;63173;49.086;33.418;2023-05-10T00:55:45;101202.19;;;8.88;57.25
74578;BME280;63173;49.086;33.418;2023-05-10T00:58:11;101203.38;;;8.97;57.50
74578;BME280;63173;49.086;33.418;2023-05-10T01:00:37;101202.00;;;9.21;57.79
74578;BME280;63173;49.086;33.418;2023-05-10T01:03:06;101191.75;;;9.23;57.57
74578;BME280;63173;49.086;33.418;2023-05-10T01:05:31;101192.03;;;9.26;57.65
74578;BME280;63173;49.086;33.418;2023-05-10T01:07:57;101192.22;;;9.20;57.29
74578;BME280;63173;49.086;33.418;2023-05-10T01:10:22;101196.75;;;9.36;57.67
74578;BME280;63173;49.086;33.418;2023-05-10T01:12:48;101195.19;;;9.45;57.48
74578;BME280;63173;49.086;33.418;2023-05-10T01:15:14;101197.22;;;9.60;56.71
74578;BME280;63173;49.086;33.418;2023-05-10T01:17:42;101186.16;;;9.66;57.32
74578;BME280;63173;49.086;33.418;2023-05-10T01:20:09;101193.34;;;9.50;58.24
74578;BME280;63173;49.086;33.418;2023-05-10T01:25:38;101194.28;;;9.61;58.22
74578;BME280;63173;49.086;33.418;2023-05-10T01:31:21;101195.13;;;9.67;58.00
74578;BME280;63173;49.086;33.418;2023-05-10T01:34:09;101195.91;;;9.67;57.76
74578;BME280;63173;49.086;33.418;2023-05-10T01:36:48;101197.03;;;9.71;57.78
74578;BME280;63173;49.086;33.418;2023-05-10T01:39:22;101197.41;;;9.80;55.67
74578;BME280;63173;49.086;33.418;2023-05-10T01:41:56;101197.41;;;9.80;57.10
74578;BME280;63173;49.086;33.418;2023-05-10T01:44:41;101192.81;;;9.85;56.73
74578;BME280;63173;49.086;33.418;2023-05-10T01:47:17;101188.44;;;9.79;57.32
74578;BME280;63173;49.086;33.418;2023-05-10T01:49:50;101185.75;;;9.84;55.79
74578;BME280;63173;49.086;33.418;2023-05-10T01:52:24;101184.72;;;9.90;57.18
74578;BME280;63173;49.086;33.418;2023-05-10T01:54:56;101185.25;;;9.87;56.48
74578;BME280;63173;49.086;33.418;2023-05-10T01:57:28;101184.41;;;9.87;56.10
74578;BME280;63173;49.086;33.418;2023-05-10T01:59:58;101176.25;;;9.82;56.04
74578;BME280;63173;49.086;33.418;2023-05-10T02:02:26;101175.75;;;9.90;56.16
74578;BME280;63173;49.086;33.418;2023-05-10T02:04:54;101172.16;;;9.79;57.44
74578;BME280;63173;49.086;33.418;2023-05-10T02:07:21;101185.69;;;9.74;58.26
74578;BME280;63173;49.086;33.418;2023-05-10T02:09:49;101188.66;;;9.73;56.26
74578;BME280;63173;49.086;33.418;2023-05-10T02:12:15;101175.84;;;9.63;56.53
74578;BME280;63173;49.086;33.418;2023-05-10T02:14:42;101181.03;;;9.70;57.56
74578;BME280;63173;49.086;33.418;2023-05-10T02:17:09;101180.25;;;9.74;57.63
74578;BME280;63173;49.086;33.418;2023-05-10T02:19:37;101187.97;;;9.87;58.01
74578;BME280;63173;49.086;33.418;2023-05-10T02:22:03;101182.34;;;9.67;56.85
74578;BME280;63173;49.086;33.418;2023-05-10T02:24:30;101194.84;;;9.63;56.82
74578;BME280;63173;49.086;33.418;2023-05-10T02:26:57;101183.66;;;9.28;57.29
74578;BME280;63173;49.086;33.418;2023-05-10T02:29:25;101192.16;;;8.88;59.56
74578;BME280;63173;49.086;33.418;2023-05-10T02:31:52;101190.38;;;8.72;60.09
74578;BME280;63173;49.086;33.418;2023-05-10T02:34:19;101197.53;;;8.83;59.61
74578;BME280;63173;49.086;33.418;2023-05-10T02:36:47;101197.91;;;8.48;60.80
74578;BME280;63173;49.086;33.418;2023-05-10T02:39:14;101193.94;;;8.56;61.83
74578;BME280;63173;49.086;33.418;2023-05-10T02:41:42;101194.31;;;8.43;61.00
74578;BME280;63173;49.086;33.418;2023-05-10T02:44:08;101199.03;;;8.31;61.40
74578;BME280;63173;49.086;33.418;2023-05-10T02:46:35;101194.63;;;8.46;61.15
74578;BME280;63173;49.086;33.418;2023-05-10T02:49:02;101197.75;;;8.38;60.76
74578;BME280;63173;49.086;33.418;2023-05-10T02:51:32;101198.28;;;8.35;61.32
74578;BME280;63173;49.086;33.418;2023-05-10T02:54:06;101197.22;;;8.36;60.98
74578;BME280;63173;49.086;33.418;2023-05-10T02:56:36;101204.69;;;8.29;60.91
74578;BME280;63173;49.086;33.418;2023-05-10T02:59:05;101203.06;;;8.50;60.61
74578;BME280;63173;49.086;33.418;2023-05-10T03:01:31;101210.59;;;8.65;60.09
74578;BME280;63173;49.086;33.418;2023-05-10T03:03:57;101207.75;;;8.54;58.95
74578;BME280;63173;49.086;33.418;2023-05-10T03:06:22;101205.81;;;8.33;59.79
74578;BME280;63173;49.086;33.418;2023-05-10T03:08:48;101213.78;;;8.40;59.76
74578;BME280;63173;49.086;33.418;2023-05-10T03:14:16;101222.28;;;8.48;59.49
74578;BME280;63173;49.086;33.418;2023-05-10T03:16:47;101213.31;;;8.48;58.68
74578;BME280;63173;49.086;33.418;2023-05-10T03:19:39;101219.41;;;8.55;58.38
74578;BME280;63173;49.086;33.418;2023-05-10T03:22:10;101225.19;;;8.64;58.71
74578;BME280;63173;49.086;33.418;2023-05-10T03:24:36;101215.88;;;8.76;57.00
74578;BME280;63173;49.086;33.418;2023-05-10T03:27:04;101212.03;;;8.72;57.86
74578;BME280;63173;49.086;33.418;2023-05-10T03:29:31;101216.28;;;8.90;57.13
74578;BME280;63173;49.086;33.418;2023-05-10T03:32:00;101206.19;;;9.07;56.68
74578;BME280;63173;49.086;33.418;2023-05-10T03:34:25;101211.97;;;8.89;56.97
74578;BME280;63173;49.086;33.418;2023-05-10T03:36:51;101215.44;;;9.11;56.00
74578;BME280;63173;49.086;33.418;2023-05-10T03:39:17;101215.00;;;9.19;55.98
74578;BME280;63173;49.086;33.418;2023-05-10T03:41:42;101215.66;;;9.04;56.37
74578;BME280;63173;49.086;33.418;2023-05-10T03:44:08;101215.16;;;9.07;56.84
74578;BME280;63173;49.086;33.418;2023-05-10T03:46:33;101206.56;;;9.15;55.88
74578;BME280;63173;49.086;33.418;2023-05-10T03:48:59;101202.84;;;9.21;56.49
74578;BME280;63173;49.086;33.418;2023-05-10T03:51:24;101213.53;;;9.33;55.75
74578;BME280;63173;49.086;33.418;2023-05-10T03:53:54;101218.44;;;9.36;55.89
74578;BME280;63173;49.086;33.418;2023-05-10T03:56:20;101209.44;;;9.62;55.80
74578;BME280;63173;49.086;33.418;2023-05-10T03:58:46;101217.03;;;9.60;56.25
74578;BME280;63173;49.086;33.418;2023-05-10T04:01:11;101212.94;;;9.89;54.37
74578;BME280;63173;49.086;33.418;2023-05-10T04:03:37;101215.19;;;9.97;55.30
74578;BME280;63173;49.086;33.418;2023-05-10T04:06:03;101219.84;;;10.07;55.49
74578;BME280;63173;49.086;33.418;2023-05-10T04:08:29;101221.53;;;10.13;54.26
74578;BME280;63173;49.086;33.418;2023-05-10T04:11:05;101226.25;;;9.91;55.99
74578;BME280;63173;49.086;33.418;2023-05-10T04:13:31;101216.22;;;9.91;56.56
74578;BME280;63173;49.086;33.418;2023-05-10T04:15:57;101210.00;;;10.27;54.91
74578;BME280;63173;49.086;33.418;2023-05-10T04:18:22;101208.63;;;10.30;54.19
74578;BME280;63173;49.086;33.418;2023-05-10T04:20:47;101217.00;;;10.23;53.80
74578;BME280;63173;49.086;33.418;2023-05-10T04:23:13;101214.59;;;10.27;53.64
74578;BME280;63173;49.086;33.418;2023-05-10T04:25:39;101210.88;;;10.43;53.15
74578;BME280;63173;49.086;33.418;2023-05-10T04:28:04;101217.50;;;10.62;52.31
74578;BME280;63173;49.086;33.418;2023-05-10T04:30:30;101211.28;;;10.72;52.09
74578;BME280;63173;49.086;33.418;2023-05-10T04:32:55;101216.78;;;10.87;52.90
74578;BME280;63173;49.086;33.418;2023-05-10T04:35:21;101216.50;;;10.83;53.99
74578;BME280;63173;49.086;33.418;2023-05-10T04:37:46;101219.75;;;10.80;54.28
74578;BME280;63173;49.086;33.418;2023-05-10T04:40:12;101221.50;;;10.45;53.95
74578;BME280;63173;49.086;33.418;2023-05-10T04:42:40;101227.63;;;10.82;54.28
74578;BME280;63173;49.086;33.418;2023-05-10T04:45:06;101214.56;;;10.79;53.37
74578;BME280;63173;49.086;33.418;2023-05-10T04:47:32;101214.16;;;11.12;51.93
74578;BME280;63173;49.086;33.418;2023-05-10T04:49:58;101214.97;;;11.12;53.27
74578;BME280;63173;49.086;33.418;2023-05-10T04:52:23;101217.09;;;11.05;51.87
74578;BME280;63173;49.086;33.418;2023-05-10T04:54:49;101219.94;;;11.41;51.78
74578;BME280;63173;49.086;33.418;2023-05-10T04:57:14;101226.75;;;11.58;50.46
74578;BME280;63173;49.086;33.418;2023-05-10T04:59:40;101228.09;;;11.61;50.67
74578;BME280;63173;49.086;33.418;2023-05-10T05:02:05;101239.53;;;11.63;49.85
74578;BME280;63173;49.086;33.418;2023-05-10T05:04:31;101236.78;;;11.53;51.93
74578;BME280;63173;49.086;33.418;2023-05-10T05:06:56;101237.13;;;11.71;50.50
74578;BME280;63173;49.086;33.418;2023-05-10T05:09:22;101241.44;;;11.62;50.66
74578;BME280;63173;49.086;33.418;2023-05-10T05:11:47;101232.78;;;11.65;50.92
74578;BME280;63173;49.086;33.418;2023-05-10T05:14:13;101232.78;;;11.65;50.95
74578;BME280;63173;49.086;33.418;2023-05-10T05:16:39;101228.97;;;11.86;51.46
74578;BME280;63173;49.086;33.418;2023-05-10T05:19:04;101225.97;;;11.98;50.05
74578;BME280;63173;49.086;33.418;2023-05-10T05:21:30;101238.78;;;11.82;49.84
74578;BME280;63173;49.086;33.418;2023-05-10T05:23:57;101237.38;;;11.65;50.19
74578;BME280;63173;49.086;33.418;2023-05-10T05:26:22;101229.22;;;12.10;49.73
74578;BME280;63173;49.086;33.418;2023-05-10T05:28:48;101237.13;;;12.01;47.96
74578;BME280;63173;49.086;33.418;2023-05-10T05:31:15;101231.38;;;12.33;47.44
74578;BME280;63173;49.086;33.418;2023-05-10T05:33:40;101234.84;;;12.54;48.53
74578;BME280;63173;49.086;33.418;2023-05-10T05:36:06;101234.31;;;11.36;54.03
74578;BME280;63173;49.086;33.418;2023-05-10T05:38:31;101238.22;;;11.65;54.38
74578;BME280;63173;49.086;33.418;2023-05-10T05:40:57;101225.97;;;11.83;52.79
74578;BME280;63173;49.086;33.418;2023-05-10T05:43:22;101237.41;;;11.90;52.54
74578;BME280;63173;49.086;33.418;2023-05-10T05:45:48;101228.38;;;12.24;50.39
74578;BME280;63173;49.086;33.418;2023-05-10T05:48:13;101228.00;;;12.71;50.25
74578;BME280;63173;49.086;33.418;2023-05-10T05:50:39;101228.41;;;11.89;51.53
74578;BME280;63173;49.086;33.418;2023-05-10T05:53:04;101216.66;;;12.19;50.85
74578;BME280;63173;49.086;33.418;2023-05-10T05:55:30;101224.16;;;12.72;48.95
74578;BME280;63173;49.086;33.418;2023-05-10T05:57:57;101222.97;;;12.98;48.46
74578;BME280;63173;49.086;33.418;2023-05-10T06:00:22;101213.56;;;12.61;48.73
74578;BME280;63173;49.086;33.418;2023-05-10T06:02:48;101223.69;;;12.60;48.42
74578;BME280;63173;49.086;33.418;2023-05-10T06:05:13;101215.44;;;12.70;48.08
74578;BME280;63173;49.086;33.418;2023-05-10T06:07:39;101221.75;;;12.66;48.34
74578;BME280;63173;49.086;33.418;2023-05-10T06:10:08;101214.13;;;12.63;47.78
74578;BME280;63173;49.086;33.418;2023-05-10T06:12:33;101216.31;;;12.66;47.87
74578;BME280;63173;49.086;33.418;2023-05-10T06:14:59;101218.97;;;12.76;47.42
74578;BME280;63173;49.086;33.418;2023-05-10T06:17:24;101213.16;;;12.97;46.65
74578;BME280;63173;49.086;33.418;2023-05-10T06:19:50;101206.34;;;12.95;47.88
74578;BME280;63173;49.086;33.418;2023-05-10T06:22:15;101207.16;;;12.95;46.63
74578;BME280;63173;49.086;33.418;2023-05-10T06:24:41;101210.47;;;12.92;45.97
74578;BME280;63173;49.086;33.418;2023-05-10T06:27:06;101209.31;;;13.08;43.90
74578;BME280;63173;49.086;33.418;2023-05-10T06:29:32;101213.06;;;13.17;44.19
74578;BME280;63173;49.086;33.418;2023-05-10T06:31:57;101201.81;;;13.34;42.91
74578;BME280;63173;49.086;33.418;2023-05-10T06:34:24;101200.69;;;13.35;42.60
74578;BME280;63173;49.086;33.418;2023-05-10T06:36:49;101196.91;;;13.31;41.57
74578;BME280;63173;49.086;33.418;2023-05-10T06:39:14;101196.22;;;13.10;42.71
74578;BME280;63173;49.086;33.418;2023-05-10T06:41:41;101198.91;;;13.54;42.27
74578;BME280;63173;49.086;33.418;2023-05-10T06:44:07;101192.31;;;13.60;41.71
74578;BME280;63173;49.086;33.418;2023-05-10T06:46:32;101203.38;;;13.45;41.13
74578;BME280;63173;49.086;33.418;2023-05-10T06:48:57;101199.38;;;13.66;39.80
74578;BME280;63173;49.086;33.418;2023-05-10T06:51:23;101193.75;;;14.15;38.94
74578;BME280;63173;49.086;33.418;2023-05-10T06:53:48;101195.25;;;14.31;38.40
74578;BME280;63173;49.086;33.418;2023-05-10T06:56:14;101197.97;;;13.74;38.03
74578;BME280;63173;49.086;33.418;2023-05-10T06:58:39;101193.53;;;14.06;37.22
74578;BME280;63173;49.086;33.418;2023-05-10T07:01:05;101195.81;;;14.28;37.73
74578;BME280;63173;49.086;33.418;2023-05-10T07:03:31;101190.47;;;14.65;36.68
74578;BME280;63173;49.086;33.418;2023-05-10T07:06:01;101183.84;;;14.71;35.17
74578;BME280;63173;49.086;33.418;2023-05-10T07:08:29;101192.03;;;14.95;35.29
74578;BME280;63173;49.086;33.418;2023-05-10T07:11:00;101195.22;;;14.78;35.82
74578;BME280;63173;49.086;33.418;2023-05-10T07:13:25;101199.38;;;14.76;34.09
74578;BME280;63173;49.086;33.418;2023-05-10T07:15:51;101195.00;;;14.75;33.89
74578;BME280;63173;49.086;33.418;2023-05-10T07:18:16;101192.94;;;14.43;31.68
74578;BME280;63173;49.086;33.418;2023-05-10T07:20:41;101191.31;;;14.13;30.30
74578;BME280;63173;49.086;33.418;2023-05-10T07:23:07;101195.53;;;14.30;32.51
74578;BME280;63173;49.086;33.418;2023-05-10T07:25:32;101193.31;;;14.79;33.07
74578;BME280;63173;49.086;33.418;2023-05-10T07:27:58;101198.88;;;15.53;32.00
74578;BME280;63173;49.086;33.418;2023-05-10T07:30:23;101196.34;;;15.38;31.78
74578;BME280;63173;49.086;33.418;2023-05-10T07:32:49;101193.13;;;15.31;31.99
74578;BME280;63173;49.086;33.418;2023-05-10T07:35:14;101190.72;;;15.67;30.43
74578;BME280;63173;49.086;33.418;2023-05-10T07:37:40;101194.03;;;15.27;31.31
74578;BME280;63173;49.086;33.418;2023-05-10T07:40:06;101197.03;;;15.81;30.05
74578;BME280;63173;49.086;33.418;2023-05-10T07:42:31;101190.41;;;16.00;29.65
74578;BME280;63173;49.086;33.418;2023-05-10T07:44:57;101193.41;;;15.85;27.62
74578;BME280;63173;49.086;33.418;2023-05-10T07:47:22;101185.03;;;15.45;29.17
74578;BME280;63173;49.086;33.418;2023-05-10T07:49:48;101188.38;;;16.06;27.76
74578;BME280;63173;49.086;33.418;2023-05-10T07:52:14;101196.75;;;16.42;28.80
74578;BME280;63173;49.086;33.418;2023-05-10T07:54:39;101182.97;;;15.87;28.49
74578;BME280;63173;49.086;33.418;2023-05-10T07:57:04;101189.75;;;16.36;28.11
74578;BME280;63173;49.086;33.418;2023-05-10T07:59:30;101187.31;;;16.75;28.49
74578;BME280;63173;49.086;33.418;2023-05-10T08:01:55;101182.69;;;16.48;28.30
74578;BME280;63173;49.086;33.418;2023-05-10T08:04:21;101188.84;;;15.62;27.93
74578;BME280;63173;49.086;33.418;2023-05-10T08:06:47;101187.06;;;15.71;28.86
74578;BME280;63173;49.086;33.418;2023-05-10T08:09:13;101183.09;;;16.10;29.58
74578;BME280;63173;49.086;33.418;2023-05-10T08:11:38;101187.13;;;15.10;29.05
74578;BME280;63173;49.086;33.418;2023-05-10T08:14:04;101184.78;;;15.04;28.40
74578;BME280;63173;49.086;33.418;2023-05-10T08:16:29;101179.03;;;14.82;29.07
74578;BME280;63173;49.086;33.418;2023-05-10T08:18:54;101185.47;;;14.72;29.21
74578;BME280;63173;49.086;33.418;2023-05-10T08:21:20;101178.84;;;14.31;29.79
74578;BME280;63173;49.086;33.418;2023-05-10T08:23:46;101177.97;;;14.59;29.90
74578;BME280;63173;49.086;33.418;2023-05-10T08:26:11;101177.31;;;14.67;31.29
74578;BME280;63173;49.086;33.418;2023-05-10T08:28:37;101180.88;;;15.10;29.41
74578;BME280;63173;49.086;33.418;2023-05-10T08:31:02;101179.19;;;15.51;29.31
74578;BME280;63173;49.086;33.418;2023-05-10T08:33:28;101168.13;;;15.88;28.84
74578;BME280;63173;49.086;33.418;2023-05-10T08:35:53;101180.16;;;15.42;29.32
74578;BME280;63173;49.086;33.418;2023-05-10T08:38:19;101180.84;;;15.66;29.11
74578;BME280;63173;49.086;33.418;2023-05-10T08:40:44;101174.28;;;15.99;29.11
74578;BME280;63173;49.086;33.418;2023-05-10T08:43:12;101185.53;;;15.47;31.05
74578;BME280;63173;49.086;33.418;2023-05-10T08:45:40;101181.78;;;16.07;31.63
74578;BME280;63173;49.086;33.418;2023-05-10T08:48:07;101182.56;;;15.25;30.58
74578;BME280;63173;49.086;33.418;2023-05-10T08:50:35;101185.31;;;15.06;32.09
74578;BME280;63173;49.086;33.418;2023-05-10T08:53:04;101177.66;;;15.22;30.10
74578;BME280;63173;49.086;33.418;2023-05-10T08:55:30;101181.50;;;15.44;30.12
74578;BME280;63173;49.086;33.418;2023-05-10T08:57:55;101171.44;;;16.04;30.65
74578;BME280;63173;49.086;33.418;2023-05-10T09:00:22;101173.09;;;15.86;28.46
74578;BME280;63173;49.086;33.418;2023-05-10T09:02:49;101177.44;;;16.20;28.33
74578;BME280;63173;49.086;33.418;2023-05-10T09:05:15;101171.63;;;16.08;28.06
74578;BME280;63173;49.086;33.418;2023-05-10T09:07:41;101176.84;;;16.36;28.66
74578;BME280;63173;49.086;33.418;2023-05-10T09:10:08;101174.81;;;16.42;28.02
74578;BME280;63173;49.086;33.418;2023-05-10T09:12:34;101169.66;;;16.40;28.59
74578;BME280;63173;49.086;33.418;2023-05-10T09:15:00;101176.66;;;16.33;29.21
74578;BME280;63173;49.086;33.418;2023-05-10T09:17:28;101165.06;;;16.09;30.21
74578;BME280;63173;49.086;33.418;2023-05-10T09:19:58;101178.78;;;15.58;30.81
74578;BME280;63173;49.086;33.418;2023-05-10T09:22:24;101174.38;;;15.43;30.60
74578;BME280;63173;49.086;33.418;2023-05-10T09:27:32;101172.34;;;15.30;29.99
74578;BME280;63173;49.086;33.418;2023-05-10T09:29:58;101168.75;;;15.35;29.57
74578;BME280;63173;49.086;33.418;2023-05-10T09:32:39;101172.88;;;15.51;29.67
74578;BME280;63173;49.086;33.418;2023-05-10T09:35:12;101173.69;;;15.33;29.33
74578;BME280;63173;49.086;33.418;2023-05-10T09:37:43;101174.78;;;15.32;30.68
74578;BME280;63173;49.086;33.418;2023-05-10T09:40:14;101165.03;;;15.07;29.45
74578;BME280;63173;49.086;33.418;2023-05-10T09:45:24;101169.88;;;14.91;30.63
74578;BME280;63173;49.086;33.418;2023-05-10T09:47:49;101164.22;;;15.25;30.08
74578;BME280;63173;49.086;33.418;2023-05-10T09:50:15;101169.75;;;15.39;30.00
74578;BME280;63173;49.086;33.418;2023-05-10T09:52:58;101160.00;;;15.33;28.79
74578;BME280;63173;49.086;33.418;2023-05-10T09:58:01;101149.88;;;15.97;26.92
74578;BME280;63173;49.086;33.418;2023-05-10T10:00:27;101145.88;;;16.36;27.56
74578;BME280;63173;49.086;33.418;2023-05-10T10:02:58;101152.09;;;17.18;27.47
74578;BME280;63173;49.086;33.418;2023-05-10T10:05:35;101140.31;;;17.04;27.45
74578;BME280;63173;49.086;33.418;2023-05-10T10:08:03;101153.66;;;16.97;27.83
74578;BME280;63173;49.086;33.418;2023-05-10T10:10:31;101154.47;;;17.11;27.51
74578;BME280;63173;49.086;33.418;2023-05-10T10:12:56;101151.28;;;16.41;29.37
74578;BME280;63173;49.086;33.418;2023-05-10T10:15:23;101148.53;;;17.39;29.20
74578;BME280;63173;49.086;33.418;2023-05-10T10:17:49;101143.03;;;17.53;27.07
74578;BME280;63173;49.086;33.418;2023-05-10T10:20:16;101145.25;;;16.93;27.31
74578;BME280;63173;49.086;33.418;2023-05-10T10:22:42;101145.63;;;16.05;28.41
74578;BME280;63173;49.086;33.418;2023-05-10T10:25:15;101151.66;;;16.34;27.98
74578;BME280;63173;49.086;33.418;2023-05-10T10:36:09;101172.19;;;14.84;35.18
74578;BME280;63173;49.086;33.418;2023-05-10T10:41:11;101180.56;;;14.22;36.38
74578;BME280;63173;49.086;33.418;2023-05-10T10:52:34;101186.03;;;13.60;38.52
74578;BME280;63173;49.086;33.418;2023-05-10T10:57:30;101185.75;;;13.61;38.78
74578;BME280;63173;49.086;33.418;2023-05-10T11:05:23;101177.75;;;14.32;37.46
74578;BME280;63173;49.086;33.418;2023-05-10T11:07:54;101177.63;;;14.42;37.48
74578;BME280;63173;49.086;33.418;2023-05-10T11:10:24;101177.59;;;14.47;36.75
74578;BME280;63173;49.086;33.418;2023-05-10T11:13:03;101179.06;;;14.35;36.50
74578;BME280;63173;49.086;33.418;2023-05-10T11:15:39;101179.03;;;14.40;36.33
74578;BME280;63173;49.086;33.418;2023-05-10T11:18:24;101177.44;;;14.81;34.70
74578;BME280;63173;49.086;33.418;2023-05-10T11:20:51;101186.69;;;14.61;36.27
74578;BME280;63173;49.086;33.418;2023-05-10T11:23:17;101180.69;;;14.83;35.46
74578;BME280;63173;49.086;33.418;2023-05-10T11:25:44;101181.97;;;14.67;36.88
74578;BME280;63173;49.086;33.418;2023-05-10T11:28:10;101182.03;;;14.85;36.39
74578;BME280;63173;49.086;33.418;2023-05-10T11:30:38;101182.06;;;15.23;35.45
74578;BME280;63173;49.086;33.418;2023-05-10T11:33:05;101180.84;;;14.91;34.39
74578;BME280;63173;49.086;33.418;2023-05-10T11:35:30;101176.13;;;15.34;34.37
74578;BME280;63173;49.086;33.418;2023-05-10T11:37:55;101176.66;;;15.36;33.69
74578;BME280;63173;49.086;33.418;2023-05-10T11:40:21;101180.06;;;15.47;33.46
74578;BME280;63173;49.086;33.418;2023-05-10T11:42:50;101177.41;;;15.23;33.76
74578;BME280;63173;49.086;33.418;2023-05-10T11:45:15;101182.13;;;15.18;33.26
74578;BME280;63173;49.086;33.418;2023-05-10T11:47:41;101173.53;;;14.87;33.93
74578;BME280;63173;49.086;33.418;2023-05-10T11:50:09;101179.00;;;14.63;34.86
74578;BME280;63173;49.086;33.418;2023-05-10T11:52:36;101182.34;;;15.21;32.87
74578;BME280;63173;49.086;33.418;2023-05-10T11:55:05;101177.28;;;15.52;32.84
74578;BME280;63173;49.086;33.418;2023-05-10T11:57:30;101170.41;;;15.68;32.20
74578;BME280;63173;49.086;33.418;2023-05-10T11:59:57;101173.47;;;15.66;31.46
74578;BME280;63173;49.086;33.418;2023-05-10T12:02:23;101168.91;;;15.75;31.75
74578;BME280;63173;49.086;33.418;2023-05-10T12:04:49;101169.84;;;15.34;31.43
74578;BME280;63173;49.086;33.418;2023-05-10T12:07:16;101158.25;;;16.06;29.09
74578;BME280;63173;49.086;33.418;2023-05-10T12:10:02;101166.16;;;15.43;29.81
74578;BME280;63173;49.086;33.418;2023-05-10T12:12:38;101158.59;;;15.54;29.96
74578;BME280;63173;49.086;33.418;2023-05-10T12:15:05;101151.88;;;16.38;29.78
74578;BME280;63173;49.086;33.418;2023-05-10T12:17:31;101154.66;;;17.14;28.25
74578;BME280;63173;49.086;33.418;2023-05-10T12:20:19;101147.44;;;17.40;28.09
74578;BME280;63173;49.086;33.418;2023-05-10T12:22:47;101146.91;;;16.80;26.68
74578;BME280;63173;49.086;33.418;2023-05-10T12:25:14;101144.28;;;16.48;27.46
74578;BME280;63173;49.086;33.418;2023-05-10T12:27:39;101149.19;;;17.01;25.38
74578;BME280;63173;49.086;33.418;2023-05-10T12:30:05;101142.38;;;16.98;26.81
74578;BME280;63173;49.086;33.418;2023-05-10T12:32:41;101146.16;;;17.60;26.43
74578;BME280;63173;49.086;33.418;2023-05-10T12:35:07;101143.03;;;18.06;25.62
74578;BME280;63173;49.086;33.418;2023-05-10T12:37:34;101142.06;;;18.41;25.17
74578;BME280;63173;49.086;33.418;2023-05-10T12:40:08;101153.84;;;18.02;24.98
74578;BME280;63173;49.086;33.418;2023-05-10T12:42:35;101149.69;;;17.60;25.77
74578;BME280;63173;49.086;33.418;2023-05-10T12:45:04;101150.69;;;17.86;26.23
74578;BME280;63173;49.086;33.418;2023-05-10T12:47:30;101150.69;;;17.86;26.61
74578;BME280;63173;49.086;33.418;2023-05-10T12:49:56;101148.47;;;17.66;26.33
74578;BME280;63173;49.086;33.418;2023-05-10T12:52:21;101143.38;;;17.02;27.19
74578;BME280;63173;49.086;33.418;2023-05-10T12:54:47;101142.94;;;16.46;27.13
74578;BME280;63173;49.086;33.418;2023-05-10T12:57:13;101142.34;;;16.49;28.76
74578;BME280;63173;49.086;33.418;2023-05-10T12:59:38;101148.41;;;16.19;30.20
74578;BME280;63173;49.086;33.418;2023-05-10T13:02:04;101142.75;;;16.42;29.01
74578;BME280;63173;49.086;33.418;2023-05-10T13:04:29;101146.56;;;16.96;28.47
74578;BME280;63173;49.086;33.418;2023-05-10T13:06:55;101142.13;;;16.72;29.33
74578;BME280;63173;49.086;33.418;2023-05-10T13:09:27;101149.06;;;15.51;31.47
74578;BME280;63173;49.086;33.418;2023-05-10T13:11:54;101152.44;;;15.62;31.82
74578;BME280;63173;49.086;33.418;2023-05-10T13:14:20;101150.03;;;15.42;32.51
74578;BME280;63173;49.086;33.418;2023-05-10T13:16:46;101156.66;;;15.36;31.65
74578;BME280;63173;49.086;33.418;2023-05-10T13:19:15;101144.44;;;15.65;32.72
74578;BME280;63173;49.086;33.418;2023-05-10T13:21:42;101141.63;;;15.70;32.59
74578;BME280;63173;49.086;33.418;2023-05-10T13:24:08;101153.41;;;15.34;31.64
74578;BME280;63173;49.086;33.418;2023-05-10T13:26:33;101149.63;;;14.74;31.88
74578;BME280;63173;49.086;33.418;2023-05-10T13:28:59;101150.09;;;14.99;32.56